createdAt,value
2018-03-21T00:00:00.375Z,-2.73
2018-03-21T00:02:28.693Z,-2.75
2018-03-21T00:04:56.956Z,-2.74
2018-03-21T00:07:25.277Z,-2.77
2018-03-21T00:09:53.569Z,-2.80
2018-03-21T00:12:22.912Z,-2.90
2018-03-21T00:14:51.296Z,-3.03
2018-03-21T00:17:20.400Z,-3.09
2018-03-21T00:19:48.778Z,-3.13
2018-03-21T00:22:18.798Z,-3.11
2018-03-21T00:24:47.501Z,-3.10
2018-03-21T00:27:15.864Z,-3.10
2018-03-21T00:29:44.141Z,-3.13
2018-03-21T00:32:12.472Z,-3.14
2018-03-21T00:34:41.693Z,-3.19
2018-03-21T00:37:11.236Z,-3.24
2018-03-21T00:39:41.184Z,-3.31
2018-03-21T00:42:09.503Z,-3.34
2018-03-21T00:44:37.784Z,-3.38
2018-03-21T00:47:06.568Z,-3.40
2018-03-21T00:49:34.855Z,-3.43
2018-03-21T00:52:03.959Z,-3.37
2018-03-21T00:54:32.418Z,-3.21
2018-03-21T00:57:00.708Z,-3.21
2018-03-21T00:59:29.714Z,-3.24
2018-03-21T01:01:58.832Z,-3.25
2018-03-21T01:04:29.744Z,-3.24
2018-03-21T01:06:58.831Z,-3.27
2018-03-21T01:09:27.900Z,-3.30
2018-03-21T01:11:56.963Z,-3.30
2018-03-21T01:14:26.256Z,-3.34
2018-03-21T01:16:55.388Z,-3.42
2018-03-21T01:19:24.473Z,-3.47
2018-03-21T01:21:52.892Z,-3.46
2018-03-21T01:24:21.179Z,-3.47
2018-03-21T01:26:50.019Z,-3.46
2018-03-21T01:29:18.384Z,-3.55
2018-03-21T01:31:47.128Z,-3.54
2018-03-21T01:34:15.441Z,-3.43
2018-03-21T01:36:43.730Z,-3.22
2018-03-21T01:39:13.699Z,-3.08
2018-03-21T01:41:42.933Z,-3.12
2018-03-21T01:44:11.209Z,-3.18
2018-03-21T01:46:39.916Z,-3.26
2018-03-21T01:49:10.100Z,-3.18
2018-03-21T01:51:38.418Z,-3.29
2018-03-21T01:54:07.438Z,-3.39
2018-03-21T01:56:36.549Z,-3.37
2018-03-21T01:59:07.793Z,-3.39
2018-03-21T02:01:37.657Z,-3.39
2018-03-21T02:04:06.048Z,-3.41
2018-03-21T02:06:35.597Z,-3.42
2018-03-21T02:09:04.696Z,-3.41
2018-03-21T02:11:34.704Z,-3.46
2018-03-21T02:14:03.832Z,-3.44
2018-03-21T02:16:32.915Z,-3.50
2018-03-21T02:19:02.042Z,-3.54
2018-03-21T02:21:32.209Z,-3.55
2018-03-21T02:24:02.193Z,-3.58
2018-03-21T02:26:31.020Z,-3.61
2018-03-21T02:29:00.744Z,-3.63
2018-03-21T02:31:30.525Z,-3.71
2018-03-21T02:33:58.851Z,-3.72
2018-03-21T02:36:27.263Z,-3.71
2018-03-21T02:38:55.970Z,-3.73
2018-03-21T02:41:24.332Z,-3.76
2018-03-21T02:43:53.415Z,-3.84
2018-03-21T02:46:22.384Z,-3.86
2018-03-21T02:48:50.822Z,-3.88
2018-03-21T02:51:19.096Z,-3.88
2018-03-21T02:53:47.436Z,-3.77
2018-03-21T02:56:19.174Z,-3.84
2018-03-21T02:58:48.328Z,-3.80
2018-03-21T03:01:17.836Z,-3.90
2018-03-21T03:03:47.921Z,-3.87
2018-03-21T03:06:16.223Z,-3.88
2018-03-21T03:08:46.402Z,-3.90
2018-03-21T03:11:16.190Z,-3.89
2018-03-21T03:13:44.524Z,-3.97
2018-03-21T03:16:13.047Z,-4.01
2018-03-21T03:18:41.554Z,-4.02
2018-03-21T03:21:11.407Z,-4.00
2018-03-21T03:23:39.728Z,-4.01
2018-03-21T03:26:08.122Z,-3.97
2018-03-21T03:28:37.180Z,-3.98
2018-03-21T03:31:07.291Z,-3.97
2018-03-21T03:33:35.581Z,-3.96
2018-03-21T03:36:04.447Z,-3.89
2018-03-21T03:38:33.092Z,-3.94
2018-03-21T03:41:02.152Z,-3.97
2018-03-21T03:43:31.148Z,-3.97
2018-03-21T03:45:59.844Z,-3.96
2018-03-21T03:48:28.126Z,-3.95
2018-03-21T03:50:57.293Z,-3.96
2018-03-21T03:53:25.793Z,-3.95
2018-03-21T03:55:54.112Z,-3.97
2018-03-21T03:58:23.809Z,-4.00
2018-03-21T04:00:52.862Z,-3.94
2018-03-21T04:03:21.755Z,-3.68
2018-03-21T04:05:51.006Z,-3.65
2018-03-21T04:08:20.048Z,-3.70
2018-03-21T04:10:48.597Z,-3.70
2018-03-21T04:13:18.552Z,-3.70
2018-03-21T04:15:46.973Z,-3.77
2018-03-21T04:18:15.256Z,-3.82
2018-03-21T04:20:43.567Z,-3.84
2018-03-21T04:23:11.867Z,-3.82
2018-03-21T04:25:40.179Z,-3.82
2018-03-21T04:28:08.472Z,-3.81
2018-03-21T04:30:37.510Z,-3.82
2018-03-21T04:33:06.928Z,-3.79
2018-03-21T04:35:35.229Z,-3.80
2018-03-21T04:38:03.900Z,-3.76
2018-03-21T04:40:32.292Z,-3.73
2018-03-21T04:43:00.917Z,-3.74
2018-03-21T04:45:29.184Z,-3.65
2018-03-21T04:47:58.480Z,-3.48
2018-03-21T04:50:27.524Z,-3.28
2018-03-21T04:52:55.808Z,-3.15
2018-03-21T04:55:24.094Z,-3.08
2018-03-21T04:57:52.391Z,-2.98
2018-03-21T05:00:21.152Z,-2.91
2018-03-21T05:02:50.373Z,-2.80
2018-03-21T05:05:19.390Z,-2.86
2018-03-21T05:07:48.900Z,-2.97
2018-03-21T05:10:17.942Z,-3.11
2018-03-21T05:12:46.336Z,-3.22
2018-03-21T05:15:14.609Z,-3.25
2018-03-21T05:17:42.888Z,-3.24
2018-03-21T05:20:11.192Z,-3.00
2018-03-21T05:22:39.476Z,-2.84
2018-03-21T05:25:07.908Z,-2.73
2018-03-21T05:27:36.300Z,-2.65
2018-03-21T05:30:04.581Z,-2.56
2018-03-21T05:32:32.844Z,-2.53
2018-03-21T05:35:01.484Z,-2.44
2018-03-21T05:37:30.648Z,-2.37
2018-03-21T05:39:59.117Z,-2.37
2018-03-21T05:42:27.426Z,-2.35
2018-03-21T05:44:55.764Z,-2.34
2018-03-21T05:47:24.088Z,-2.33
2018-03-21T05:49:52.372Z,-2.16
2018-03-21T05:52:21.244Z,-2.18
2018-03-21T05:54:49.570Z,-2.18
2018-03-21T05:57:18.806Z,-2.15
2018-03-21T05:59:47.088Z,-2.11
2018-03-21T06:02:15.403Z,-2.06
2018-03-21T06:04:45.276Z,-2.01
2018-03-21T06:07:13.548Z,-2.06
2018-03-21T06:09:41.828Z,-2.01
2018-03-21T06:12:10.128Z,-2.09
2018-03-21T06:14:39.201Z,-2.07
2018-03-21T06:17:08.201Z,-2.02
2018-03-21T06:19:36.781Z,-2.00
2018-03-21T06:22:05.144Z,-2.05
2018-03-21T06:24:33.419Z,-1.96
2018-03-21T06:27:01.716Z,-1.91
2018-03-21T06:29:30.411Z,-1.90
2018-03-21T06:31:58.681Z,-1.91
2018-03-21T06:34:27.064Z,-1.82
2018-03-21T06:36:55.358Z,-1.80
2018-03-21T06:39:25.554Z,-1.80
2018-03-21T06:41:54.334Z,-1.73
2018-03-21T06:44:24.989Z,-1.62
2018-03-21T06:46:53.540Z,-1.58
2018-03-21T06:49:22.060Z,-1.58
2018-03-21T06:51:51.163Z,-1.51
2018-03-21T06:54:19.573Z,-1.46
2018-03-21T06:56:48.619Z,-1.41
2018-03-21T06:59:16.892Z,-1.30
2018-03-21T07:01:45.193Z,-1.31
2018-03-21T07:04:13.508Z,-1.32
2018-03-21T07:06:42.577Z,-1.30
2018-03-21T07:09:10.923Z,-1.17
2018-03-21T07:11:40.065Z,-1.02
2018-03-21T07:14:26.413Z,-1.03
2018-03-21T07:16:54.711Z,-0.97
2018-03-21T07:19:22.977Z,-0.90
2018-03-21T07:21:51.364Z,-0.76
2018-03-21T07:24:19.684Z,-0.50
2018-03-21T07:26:48.336Z,-0.43
2018-03-21T07:29:16.648Z,-0.42
2018-03-21T07:31:45.029Z,-0.20
2018-03-21T07:34:13.381Z,-0.22
2018-03-21T07:36:41.860Z,-0.08
2018-03-21T07:39:10.216Z,0.07
2018-03-21T07:41:38.512Z,0.05
2018-03-21T07:44:07.640Z,0.21
2018-03-21T07:46:38.343Z,0.20
2018-03-21T07:49:07.336Z,0.30
2018-03-21T07:51:36.143Z,0.34
2018-03-21T07:54:04.499Z,0.42
2018-03-21T07:56:32.941Z,0.52
2018-03-21T07:59:02.111Z,0.68
2018-03-21T08:01:30.436Z,0.69
2018-03-21T08:03:59.942Z,0.91
2018-03-21T08:06:28.373Z,1.00
2018-03-21T08:08:56.651Z,1.18
2018-03-21T08:11:25.732Z,1.33
2018-03-21T08:13:54.100Z,1.38
2018-03-21T08:16:22.463Z,1.67
2018-03-21T08:18:50.748Z,1.85
2018-03-21T08:21:19.052Z,2.04
2018-03-21T08:23:47.342Z,2.23
2018-03-21T08:26:16.011Z,2.42
2018-03-21T08:28:44.320Z,2.47
2018-03-21T08:31:12.598Z,2.69
2018-03-21T08:33:41.719Z,2.88
2018-03-21T08:36:10.798Z,2.94
2018-03-21T08:38:39.086Z,3.10
2018-03-21T08:41:08.119Z,3.12
2018-03-21T08:43:36.902Z,3.23
2018-03-21T08:46:05.189Z,3.25
2018-03-21T08:48:33.972Z,3.27
2018-03-21T08:51:02.269Z,3.44
2018-03-21T08:53:30.884Z,3.47
2018-03-21T08:55:59.936Z,3.65
2018-03-21T08:58:28.313Z,3.51
2018-03-21T09:00:56.588Z,3.78
2018-03-21T09:03:25.891Z,3.96
2018-03-21T09:05:56.140Z,4.01
2018-03-21T09:08:25.036Z,4.02
2018-03-21T09:10:53.356Z,4.14
2018-03-21T09:13:22.608Z,4.01
2018-03-21T09:15:50.924Z,3.97
2018-03-21T09:18:20.583Z,3.95
2018-03-21T09:20:49.232Z,4.16
2018-03-21T09:23:17.644Z,4.09
2018-03-21T09:25:46.489Z,4.17
2018-03-21T09:28:15.548Z,4.27
2018-03-21T09:30:43.933Z,4.32
2018-03-21T09:33:12.194Z,4.45
2018-03-21T09:35:40.957Z,4.54
2018-03-21T09:38:10.148Z,4.71
2018-03-21T09:40:38.657Z,4.62
2018-03-21T09:43:06.947Z,4.78
2018-03-21T09:45:35.928Z,4.66
2018-03-21T09:48:04.301Z,4.81
2018-03-21T09:50:33.301Z,4.86
2018-03-21T09:53:01.584Z,4.86
2018-03-21T09:55:30.180Z,4.97
2018-03-21T09:57:58.980Z,5.20
2018-03-21T10:00:27.850Z,5.04
2018-03-21T10:02:56.129Z,5.07
2018-03-21T10:05:24.640Z,5.37
2018-03-21T10:07:52.907Z,5.27
2018-03-21T10:10:22.185Z,5.53
2018-03-21T10:12:50.459Z,5.45
2018-03-21T10:15:19.431Z,5.17
2018-03-21T10:17:47.727Z,5.33
2018-03-21T10:20:15.983Z,5.14
2018-03-21T10:22:44.275Z,5.08
2018-03-21T10:25:12.585Z,5.20
2018-03-21T10:27:41.069Z,5.13
2018-03-21T10:30:09.443Z,5.08
2018-03-21T10:32:38.216Z,5.14
2018-03-21T10:35:07.808Z,5.45
2018-03-21T10:37:36.516Z,5.46
2018-03-21T10:40:04.788Z,5.48
2018-03-21T10:42:33.058Z,5.57
2018-03-21T10:45:01.797Z,5.20
2018-03-21T10:47:30.500Z,5.26
2018-03-21T10:49:59.547Z,5.25
2018-03-21T10:52:38.777Z,5.19
2018-03-21T10:54:56.105Z,5.15
2018-03-21T10:57:24.372Z,5.03
2018-03-21T10:59:52.770Z,5.03
2018-03-21T11:02:21.262Z,5.21
2018-03-21T11:04:50.007Z,5.13
2018-03-21T11:07:19.251Z,5.20
2018-03-21T11:09:48.029Z,5.35
2018-03-21T11:12:16.928Z,5.49
2018-03-21T11:14:45.461Z,5.47
2018-03-21T11:17:14.650Z,5.25
2018-03-21T11:19:44.538Z,5.38
2018-03-21T11:22:12.835Z,5.62
2018-03-21T11:24:41.120Z,5.55
2018-03-21T11:27:10.207Z,5.42
2018-03-21T11:29:38.540Z,5.63
2018-03-21T11:32:07.012Z,5.41
2018-03-21T11:34:35.304Z,5.35
2018-03-21T11:37:04.945Z,5.53
2018-03-21T11:39:33.296Z,5.48
2018-03-21T11:42:01.578Z,5.57
2018-03-21T11:44:31.132Z,5.26
2018-03-21T11:47:00.590Z,5.15
2018-03-21T11:49:29.781Z,5.00
2018-03-21T11:51:59.270Z,4.84
2018-03-21T11:54:27.774Z,4.93
2018-03-21T11:56:56.055Z,5.04
2018-03-21T11:59:24.566Z,5.08
2018-03-21T12:01:52.855Z,5.07
2018-03-21T12:04:21.888Z,5.13
2018-03-21T12:06:50.192Z,5.00
2018-03-21T12:09:18.463Z,4.99
2018-03-21T12:11:48.240Z,4.98
2018-03-21T12:14:17.360Z,4.82
2018-03-21T12:16:45.636Z,4.99
2018-03-21T12:19:13.908Z,4.87
2018-03-21T12:21:42.181Z,4.93
2018-03-21T12:24:11.177Z,4.84
2018-03-21T12:26:39.480Z,4.81
2018-03-21T12:29:07.840Z,4.96
2018-03-21T12:31:36.111Z,4.88
2018-03-21T12:34:04.500Z,4.85
2018-03-21T12:36:32.760Z,4.95
2018-03-21T12:39:01.028Z,5.03
2018-03-21T12:41:30.180Z,5.13
2018-03-21T12:43:59.049Z,5.27
2018-03-21T12:46:27.321Z,5.54
2018-03-21T12:48:56.628Z,5.66
2018-03-21T12:53:59.839Z,5.97
2018-03-21T12:56:28.180Z,6.19
2018-03-21T12:58:57.225Z,6.05
2018-03-21T13:01:28.370Z,6.12
2018-03-21T13:03:59.028Z,6.01
2018-03-21T13:06:28.160Z,5.84
2018-03-21T13:08:57.841Z,5.87
2018-03-21T13:11:27.616Z,5.84
2018-03-21T13:13:55.909Z,5.69
2018-03-21T13:16:25.066Z,5.74
2018-03-21T13:18:54.088Z,5.81
2018-03-21T13:21:22.465Z,5.77
2018-03-21T13:23:51.105Z,5.76
2018-03-21T13:26:19.379Z,5.79
2018-03-21T13:28:47.700Z,5.79
2018-03-21T13:31:16.992Z,5.80
2018-03-21T13:33:45.267Z,5.78
2018-03-21T13:36:14.155Z,5.87
2018-03-21T13:38:43.271Z,5.95
2018-03-21T13:41:11.540Z,6.02
2018-03-21T13:43:39.927Z,6.02
2018-03-21T13:46:08.204Z,5.97
2018-03-21T13:48:36.942Z,5.86
2018-03-21T13:51:05.365Z,5.84
2018-03-21T13:53:34.489Z,5.63
2018-03-21T13:56:03.173Z,5.57
2018-03-21T13:58:31.468Z,5.46
2018-03-21T14:00:59.736Z,5.47
2018-03-21T14:03:28.495Z,5.47
2018-03-21T14:05:56.884Z,5.46
2018-03-21T14:08:25.908Z,5.41
2018-03-21T14:10:54.762Z,5.53
2018-03-21T14:13:23.229Z,5.49
2018-03-21T14:15:51.500Z,5.52
2018-03-21T14:18:19.797Z,5.46
2018-03-21T14:20:48.317Z,5.59
2018-03-21T14:23:17.021Z,5.59
2018-03-21T14:25:45.744Z,5.58
2018-03-21T14:28:15.637Z,5.64
2018-03-21T14:30:44.000Z,5.61
2018-03-21T14:33:12.348Z,5.47
2018-03-21T14:35:40.632Z,5.58
2018-03-21T14:38:09.401Z,5.58
2018-03-21T14:40:37.693Z,5.77
2018-03-21T14:43:05.960Z,5.58
2018-03-21T14:45:34.226Z,5.56
2018-03-21T14:48:02.620Z,5.41
2018-03-21T14:50:31.012Z,5.51
2018-03-21T14:52:59.289Z,5.52
2018-03-21T14:55:27.608Z,5.56
2018-03-21T14:57:57.189Z,5.53
2018-03-21T15:00:25.439Z,5.45
2018-03-21T15:02:53.819Z,5.37
2018-03-21T15:05:22.087Z,5.33
2018-03-21T15:07:50.470Z,5.32
2018-03-21T15:10:18.745Z,5.29
2018-03-21T15:12:47.023Z,5.28
2018-03-21T15:15:15.512Z,5.19
2018-03-21T15:17:43.790Z,5.03
2018-03-21T15:20:12.061Z,5.02
2018-03-21T15:22:41.842Z,5.02
2018-03-21T15:25:10.728Z,5.03
2018-03-21T15:27:39.913Z,5.06
2018-03-21T15:30:08.347Z,5.26
2018-03-21T15:32:36.645Z,5.49
2018-03-21T15:35:04.912Z,5.58
2018-03-21T15:37:33.204Z,5.56
2018-03-21T15:40:02.320Z,5.60
2018-03-21T15:42:30.597Z,5.52
2018-03-21T15:44:59.052Z,5.47
2018-03-21T15:47:27.321Z,5.46
2018-03-21T15:49:56.330Z,5.45
2018-03-21T15:52:25.508Z,5.46
2018-03-21T15:54:53.796Z,5.45
2018-03-21T15:57:23.028Z,5.47
2018-03-21T15:59:51.299Z,5.48
2018-03-21T16:02:20.557Z,5.50
2018-03-21T16:04:50.347Z,5.54
2018-03-21T16:07:19.495Z,5.54
2018-03-21T16:09:48.193Z,5.55
2018-03-21T16:12:16.549Z,5.58
2018-03-21T16:14:46.329Z,5.48
2018-03-21T16:17:15.360Z,5.49
2018-03-21T16:19:43.670Z,5.39
2018-03-21T16:22:12.832Z,5.32
2018-03-21T16:24:41.119Z,5.30
2018-03-21T16:27:10.940Z,5.20
2018-03-21T16:29:39.617Z,5.20
2018-03-21T16:32:08.896Z,5.09
2018-03-21T16:34:38.126Z,5.11
2018-03-21T16:37:07.731Z,5.11
2018-03-21T16:39:35.997Z,5.06
2018-03-21T16:42:05.523Z,5.07
2018-03-21T16:44:34.208Z,5.04
2018-03-21T16:47:02.907Z,5.03
2018-03-21T16:49:31.785Z,5.00
2018-03-21T16:52:00.160Z,5.08
2018-03-21T16:54:29.265Z,5.03
2018-03-21T16:56:57.641Z,4.91
2018-03-21T16:59:25.918Z,5.04
2018-03-21T17:01:55.010Z,4.98
2018-03-21T17:04:23.344Z,4.92
2018-03-21T17:06:52.387Z,4.92
2018-03-21T17:09:20.819Z,4.81
2018-03-21T17:11:50.249Z,4.82
2018-03-21T17:14:19.486Z,4.73
2018-03-21T17:16:47.756Z,4.67
2018-03-21T17:19:16.133Z,4.71
2018-03-21T17:21:45.020Z,4.66
2018-03-21T17:24:14.649Z,4.61
2018-03-21T17:26:43.822Z,4.60
2018-03-21T17:29:12.653Z,4.63
2018-03-21T17:31:42.592Z,4.59
2018-03-21T17:34:11.663Z,4.53
2018-03-21T17:36:40.848Z,4.57
2018-03-21T17:39:09.113Z,4.62
2018-03-21T17:41:38.312Z,4.58
2018-03-21T17:44:06.583Z,4.49
2018-03-21T17:46:34.984Z,4.47
2018-03-21T17:49:03.653Z,4.44
2018-03-21T17:51:32.779Z,4.45
2018-03-21T17:54:01.222Z,4.38
2018-03-21T17:56:29.617Z,4.34
2018-03-21T17:58:57.896Z,4.38
2018-03-21T18:01:26.204Z,4.36
2018-03-21T18:03:55.424Z,4.31
2018-03-21T18:06:24.500Z,4.21
2018-03-21T18:08:53.492Z,4.17
2018-03-21T18:11:22.642Z,4.18
2018-03-21T18:13:50.922Z,4.11
2018-03-21T18:16:19.192Z,4.08
2018-03-21T18:18:47.597Z,3.99
2018-03-21T18:21:16.018Z,4.02
2018-03-21T18:23:44.288Z,3.98
2018-03-21T18:26:12.574Z,3.95
2018-03-21T18:28:40.921Z,3.95
2018-03-21T18:31:09.232Z,3.90
2018-03-21T18:33:38.286Z,3.85
2018-03-21T18:36:06.649Z,3.81
2018-03-21T18:38:34.912Z,3.72
2018-03-21T18:41:03.195Z,3.68
2018-03-21T18:43:31.491Z,3.67
2018-03-21T18:46:00.184Z,3.74
2018-03-21T18:48:28.972Z,3.65
2018-03-21T18:50:57.246Z,3.56
2018-03-21T18:53:25.541Z,3.58
2018-03-21T18:55:53.833Z,3.64
2018-03-21T18:58:22.983Z,3.52
2018-03-21T19:00:51.260Z,3.44
2018-03-21T19:03:19.714Z,3.38
2018-03-21T19:05:48.053Z,3.43
2018-03-21T19:08:16.340Z,3.48
2018-03-21T19:10:44.649Z,3.43
2018-03-21T19:13:20.146Z,3.42
2018-03-21T19:15:42.492Z,3.35
2018-03-21T19:18:10.926Z,3.40
2018-03-21T19:20:39.990Z,3.36
2018-03-21T19:23:09.069Z,3.37
2018-03-21T19:25:37.339Z,3.38
2018-03-21T19:28:06.348Z,3.43
2018-03-21T19:30:35.241Z,3.35
2018-03-21T19:33:04.004Z,3.49
2018-03-21T19:35:32.291Z,3.41
2018-03-21T19:38:00.653Z,3.40
2018-03-21T19:40:28.971Z,3.45
2018-03-21T19:42:57.273Z,3.50
2018-03-21T19:45:26.356Z,3.52
2018-03-21T19:47:55.434Z,3.51
2018-03-21T19:50:23.740Z,3.48
2018-03-21T19:52:52.803Z,3.46
2018-03-21T19:55:21.688Z,3.49
2018-03-21T19:57:49.953Z,3.50
2018-03-21T20:00:18.281Z,3.47
2018-03-21T20:02:47.333Z,3.45
2018-03-21T20:05:15.622Z,3.50
2018-03-21T20:07:44.006Z,3.49
2018-03-21T20:10:12.280Z,3.41
2018-03-21T20:12:40.589Z,3.33
2018-03-21T20:15:08.932Z,3.49
2018-03-21T20:17:37.259Z,3.53
2018-03-21T20:20:06.256Z,3.36
2018-03-21T20:22:35.302Z,3.32
2018-03-21T20:25:03.868Z,3.35
2018-03-21T20:27:32.244Z,3.32
2018-03-21T20:30:01.632Z,3.39
2018-03-21T20:32:29.959Z,3.26
2018-03-21T20:34:58.619Z,3.39
2018-03-21T20:37:27.500Z,3.32
2018-03-21T20:39:56.480Z,3.34
2018-03-21T20:42:25.591Z,3.29
2018-03-21T20:44:54.010Z,3.35
2018-03-21T20:47:22.282Z,3.38
2018-03-21T20:49:51.919Z,3.33
2018-03-21T20:52:20.342Z,3.31
2018-03-21T20:54:48.611Z,3.32
2018-03-21T20:57:16.876Z,3.36
2018-03-21T20:59:45.479Z,3.36
2018-03-21T21:02:13.739Z,3.36
2018-03-21T21:04:42.812Z,3.23
2018-03-21T21:07:11.126Z,3.28
2018-03-21T21:09:39.420Z,3.33
2018-03-21T21:12:07.894Z,3.27
2018-03-21T21:14:36.565Z,3.24
2018-03-21T21:17:04.836Z,3.31
2018-03-21T21:19:34.100Z,3.22
2018-03-21T21:22:02.378Z,3.21
2018-03-21T21:24:31.050Z,3.24
2018-03-21T21:26:59.337Z,3.16
2018-03-21T21:29:27.782Z,3.20
2018-03-21T21:31:56.698Z,3.13
2018-03-21T21:34:25.363Z,3.16
2018-03-21T21:36:55.198Z,3.18
2018-03-21T21:39:23.501Z,3.16
2018-03-21T21:41:52.505Z,3.23
2018-03-21T21:44:20.875Z,3.16
2018-03-21T21:46:49.169Z,3.20
2018-03-21T21:49:19.109Z,3.09
2018-03-21T21:51:47.763Z,3.10
2018-03-21T21:54:16.525Z,3.23
2018-03-21T21:56:45.157Z,3.14
2018-03-21T21:59:14.863Z,3.17
2018-03-21T22:01:44.276Z,3.18
2018-03-21T22:04:13.304Z,3.14
2018-03-21T22:06:42.721Z,3.08
2018-03-21T22:09:11.219Z,3.13
2018-03-21T22:11:39.477Z,3.10
2018-03-21T22:14:08.058Z,3.12
2018-03-21T22:16:36.435Z,3.15
2018-03-21T22:19:04.710Z,3.12
2018-03-21T22:21:33.164Z,3.11
2018-03-21T22:24:02.124Z,3.14
2018-03-21T22:26:30.401Z,3.21
2018-03-21T22:28:59.058Z,3.13
2018-03-21T22:31:28.707Z,3.13
2018-03-21T22:33:59.078Z,3.19
2018-03-21T22:36:28.307Z,3.12
2018-03-21T22:38:56.959Z,3.17
2018-03-21T22:41:25.368Z,3.22
2018-03-21T22:43:53.671Z,3.18
2018-03-21T22:46:22.836Z,3.23
2018-03-21T22:48:52.056Z,3.19
2018-03-21T22:51:21.404Z,3.21
2018-03-21T22:53:49.700Z,3.21
2018-03-21T22:56:18.256Z,3.16
2018-03-21T22:58:48.171Z,3.21
2018-03-21T23:01:20.288Z,3.18
2018-03-21T23:03:48.679Z,3.17
2018-03-21T23:06:19.444Z,3.16
2018-03-21T23:08:48.483Z,3.15
2018-03-21T23:11:16.753Z,3.18
2018-03-21T23:13:45.058Z,3.15
2018-03-21T23:16:13.377Z,3.12
2018-03-21T23:18:42.416Z,3.09
2018-03-21T23:21:10.825Z,3.12
2018-03-21T23:23:39.249Z,3.16
2018-03-21T23:26:08.296Z,3.16
2018-03-21T23:28:36.670Z,3.18
2018-03-21T23:31:05.107Z,3.18
2018-03-21T23:33:34.148Z,3.22
2018-03-21T23:36:02.441Z,3.21
2018-03-21T23:38:30.733Z,3.27
2018-03-21T23:41:01.430Z,3.21
2018-03-21T23:43:29.834Z,3.22
2018-03-21T23:45:58.134Z,3.24
2018-03-21T23:48:27.175Z,3.19
2018-03-21T23:50:55.665Z,3.20
2018-03-21T23:53:23.952Z,3.21
2018-03-21T23:55:52.224Z,3.23
2018-03-21T23:58:20.516Z,3.21
